sensor_id;sensor_type;location;lat;lon;timestamp;P1;durP1;ratioP1;P2;durP2;ratioP2
78410;SDS011;67706;51.074;-1.796;2023-04-03T00:02:25;5.18;;;2.13;;
78410;SDS011;67706;51.074;-1.796;2023-04-03T00:04:52;4.63;;;1.73;;
78410;SDS011;67706;51.074;-1.796;2023-04-03T00:07:20;4.10;;;1.85;;
78410;SDS011;67706;51.074;-1.796;2023-04-03T00:09:47;3.30;;;1.92;;
78410;SDS011;67706;51.074;-1.796;2023-04-03T00:12:14;4.93;;;1.63;;
78410;SDS011;67706;51.074;-1.796;2023-04-03T00:14:41;8.88;;;2.33;;
78410;SDS011;67706;51.074;-1.796;2023-04-03T00:17:07;5.70;;;2.20;;
78410;SDS011;67706;51.074;-1.796;2023-04-03T00:19:34;3.03;;;1.70;;
78410;SDS011;67706;51.074;-1.796;2023-04-03T00:22:04;6.95;;;1.95;;
78410;SDS011;67706;51.074;-1.796;2023-04-03T00:26:58;4.72;;;1.73;;
78410;SDS011;67706;51.074;-1.796;2023-04-03T00:29:25;5.65;;;1.90;;
78410;SDS011;67706;51.074;-1.796;2023-04-03T00:34:18;7.78;;;1.80;;
78410;SDS011;67706;51.074;-1.796;2023-04-03T00:36:45;6.28;;;2.00;;
78410;SDS011;67706;51.074;-1.796;2023-04-03T00:41:40;5.07;;;1.60;;
78410;SDS011;67706;51.074;-1.796;2023-04-03T00:44:23;2.90;;;1.63;;
78410;SDS011;67706;51.074;-1.796;2023-04-03T00:47:27;3.90;;;1.67;;
78410;SDS011;67706;51.074;-1.796;2023-04-03T00:49:55;5.30;;;2.17;;
78410;SDS011;67706;51.074;-1.796;2023-04-03T00:52:25;6.05;;;2.08;;
78410;SDS011;67706;51.074;-1.796;2023-04-03T00:54:55;5.60;;;1.60;;
78410;SDS011;67706;51.074;-1.796;2023-04-03T00:57:26;5.82;;;1.80;;
78410;SDS011;67706;51.074;-1.796;2023-04-03T00:59:57;5.03;;;2.30;;
78410;SDS011;67706;51.074;-1.796;2023-04-03T01:02:28;3.92;;;1.77;;
78410;SDS011;67706;51.074;-1.796;2023-04-03T01:07:21;5.85;;;1.95;;
78410;SDS011;67706;51.074;-1.796;2023-04-03T01:09:51;2.30;;;1.58;;
78410;SDS011;67706;51.074;-1.796;2023-04-03T01:12:22;7.90;;;2.10;;
78410;SDS011;67706;51.074;-1.796;2023-04-03T01:14:53;3.20;;;1.80;;
78410;SDS011;67706;51.074;-1.796;2023-04-03T01:17:26;3.88;;;1.50;;
78410;SDS011;67706;51.074;-1.796;2023-04-03T01:19:57;6.15;;;2.15;;
78410;SDS011;67706;51.074;-1.796;2023-04-03T01:22:47;3.42;;;1.75;;
78410;SDS011;67706;51.074;-1.796;2023-04-03T01:25:25;5.15;;;1.90;;
78410;SDS011;67706;51.074;-1.796;2023-04-03T01:27:52;4.20;;;1.90;;
78410;SDS011;67706;51.074;-1.796;2023-04-03T01:30:21;4.15;;;2.08;;
78410;SDS011;67706;51.074;-1.796;2023-04-03T01:32:55;5.30;;;1.65;;
78410;SDS011;67706;51.074;-1.796;2023-04-03T01:35:22;4.40;;;2.08;;
78410;SDS011;67706;51.074;-1.796;2023-04-03T01:37:49;5.32;;;2.08;;
78410;SDS011;67706;51.074;-1.796;2023-04-03T01:40:16;3.00;;;1.50;;
78410;SDS011;67706;51.074;-1.796;2023-04-03T01:42:43;4.55;;;1.67;;
78410;SDS011;67706;51.074;-1.796;2023-04-03T01:47:37;3.03;;;1.50;;
78410;SDS011;67706;51.074;-1.796;2023-04-03T01:50:05;3.35;;;1.83;;
78410;SDS011;67706;51.074;-1.796;2023-04-03T01:52:32;3.22;;;1.95;;
78410;SDS011;67706;51.074;-1.796;2023-04-03T01:57:25;2.35;;;1.42;;
78410;SDS011;67706;51.074;-1.796;2023-04-03T02:02:18;6.97;;;1.92;;
78410;SDS011;67706;51.074;-1.796;2023-04-03T02:04:45;3.25;;;1.38;;
78410;SDS011;67706;51.074;-1.796;2023-04-03T02:07:13;3.70;;;1.83;;
78410;SDS011;67706;51.074;-1.796;2023-04-03T02:09:40;4.15;;;1.90;;
78410;SDS011;67706;51.074;-1.796;2023-04-03T02:12:07;3.95;;;1.80;;
78410;SDS011;67706;51.074;-1.796;2023-04-03T02:17:00;4.57;;;1.88;;
78410;SDS011;67706;51.074;-1.796;2023-04-03T02:19:30;4.82;;;2.00;;
78410;SDS011;67706;51.074;-1.796;2023-04-03T02:24:24;4.82;;;1.63;;
78410;SDS011;67706;51.074;-1.796;2023-04-03T02:26:51;4.10;;;1.70;;
78410;SDS011;67706;51.074;-1.796;2023-04-03T02:31:44;6.07;;;1.80;;
78410;SDS011;67706;51.074;-1.796;2023-04-03T02:34:11;5.80;;;1.67;;
78410;SDS011;67706;51.074;-1.796;2023-04-03T02:39:04;4.25;;;1.88;;
78410;SDS011;67706;51.074;-1.796;2023-04-03T02:41:32;3.28;;;1.88;;
78410;SDS011;67706;51.074;-1.796;2023-04-03T02:44:00;2.15;;;1.33;;
78410;SDS011;67706;51.074;-1.796;2023-04-03T02:46:27;6.32;;;2.00;;
78410;SDS011;67706;51.074;-1.796;2023-04-03T02:51:20;5.00;;;1.90;;
78410;SDS011;67706;51.074;-1.796;2023-04-03T02:53:48;6.75;;;2.25;;
78410;SDS011;67706;51.074;-1.796;2023-04-03T02:56:14;5.47;;;2.10;;
78410;SDS011;67706;51.074;-1.796;2023-04-03T02:58:43;6.60;;;2.05;;
78410;SDS011;67706;51.074;-1.796;2023-04-03T03:01:10;4.88;;;1.92;;
78410;SDS011;67706;51.074;-1.796;2023-04-03T03:03:37;3.72;;;2.03;;
78410;SDS011;67706;51.074;-1.796;2023-04-03T03:08:31;4.03;;;1.77;;
78410;SDS011;67706;51.074;-1.796;2023-04-03T03:10:58;4.80;;;1.73;;
78410;SDS011;67706;51.074;-1.796;2023-04-03T03:15:53;6.05;;;2.00;;
78410;SDS011;67706;51.074;-1.796;2023-04-03T03:18:20;4.80;;;2.28;;
78410;SDS011;67706;51.074;-1.796;2023-04-03T03:20:47;8.23;;;2.40;;
78410;SDS011;67706;51.074;-1.796;2023-04-03T03:23:17;5.40;;;2.00;;
78410;SDS011;67706;51.074;-1.796;2023-04-03T03:25:43;8.73;;;2.55;;
78410;SDS011;67706;51.074;-1.796;2023-04-03T03:30:37;3.45;;;1.70;;
78410;SDS011;67706;51.074;-1.796;2023-04-03T03:35:31;3.55;;;1.73;;
78410;SDS011;67706;51.074;-1.796;2023-04-03T03:37:58;6.00;;;1.98;;
78410;SDS011;67706;51.074;-1.796;2023-04-03T03:40:25;4.65;;;1.88;;
78410;SDS011;67706;51.074;-1.796;2023-04-03T03:42:52;5.70;;;2.22;;
78410;SDS011;67706;51.074;-1.796;2023-04-03T03:45:19;6.30;;;1.98;;
78410;SDS011;67706;51.074;-1.796;2023-04-03T03:47:49;4.53;;;1.88;;
78410;SDS011;67706;51.074;-1.796;2023-04-03T03:50:17;2.60;;;1.85;;
78410;SDS011;67706;51.074;-1.796;2023-04-03T03:52:44;4.55;;;2.25;;
78410;SDS011;67706;51.074;-1.796;2023-04-03T03:55:11;3.83;;;2.00;;
78410;SDS011;67706;51.074;-1.796;2023-04-03T03:57:37;3.00;;;1.50;;
78410;SDS011;67706;51.074;-1.796;2023-04-03T04:00:05;6.10;;;2.30;;
78410;SDS011;67706;51.074;-1.796;2023-04-03T04:02:33;4.60;;;1.77;;
78410;SDS011;67706;51.074;-1.796;2023-04-03T04:05:00;4.45;;;2.03;;
78410;SDS011;67706;51.074;-1.796;2023-04-03T04:07:28;7.03;;;1.50;;
78410;SDS011;67706;51.074;-1.796;2023-04-03T04:09:55;4.30;;;1.63;;
78410;SDS011;67706;51.074;-1.796;2023-04-03T04:12:22;4.10;;;1.65;;
78410;SDS011;67706;51.074;-1.796;2023-04-03T04:17:15;4.15;;;1.38;;
78410;SDS011;67706;51.074;-1.796;2023-04-03T04:19:42;3.30;;;1.50;;
78410;SDS011;67706;51.074;-1.796;2023-04-03T04:22:08;2.22;;;1.25;;
78410;SDS011;67706;51.074;-1.796;2023-04-03T04:27:03;3.28;;;1.60;;
78410;SDS011;67706;51.074;-1.796;2023-04-03T04:29:30;2.55;;;1.40;;
78410;SDS011;67706;51.074;-1.796;2023-04-03T04:32:02;5.90;;;1.60;;
78410;SDS011;67706;51.074;-1.796;2023-04-03T04:36:55;3.35;;;1.48;;
78410;SDS011;67706;51.074;-1.796;2023-04-03T04:39:22;6.35;;;1.70;;
78410;SDS011;67706;51.074;-1.796;2023-04-03T04:44:17;4.30;;;1.50;;
78410;SDS011;67706;51.074;-1.796;2023-04-03T04:46:43;3.55;;;1.00;;
78410;SDS011;67706;51.074;-1.796;2023-04-03T04:51:37;7.63;;;1.67;;
78410;SDS011;67706;51.074;-1.796;2023-04-03T04:56:30;2.70;;;0.95;;
78410;SDS011;67706;51.074;-1.796;2023-04-03T04:58:59;3.30;;;1.83;;
78410;SDS011;67706;51.074;-1.796;2023-04-03T05:01:25;1.80;;;0.95;;
78410;SDS011;67706;51.074;-1.796;2023-04-03T05:03:52;3.08;;;1.17;;
78410;SDS011;67706;51.074;-1.796;2023-04-03T05:08:45;3.17;;;1.10;;
78410;SDS011;67706;51.074;-1.796;2023-04-03T05:13:38;2.58;;;1.08;;
78410;SDS011;67706;51.074;-1.796;2023-04-03T05:16:06;6.35;;;1.38;;
78410;SDS011;67706;51.074;-1.796;2023-04-03T05:18:33;3.10;;;1.00;;
78410;SDS011;67706;51.074;-1.796;2023-04-03T05:21:00;4.82;;;1.30;;
78410;SDS011;67706;51.074;-1.796;2023-04-03T05:25:53;3.60;;;1.45;;
78410;SDS011;67706;51.074;-1.796;2023-04-03T05:30:52;3.22;;;1.25;;
78410;SDS011;67706;51.074;-1.796;2023-04-03T05:33:22;6.55;;;1.10;;
78410;SDS011;67706;51.074;-1.796;2023-04-03T05:35:48;3.13;;;0.93;;
78410;SDS011;67706;51.074;-1.796;2023-04-03T05:38:19;2.97;;;1.10;;
78410;SDS011;67706;51.074;-1.796;2023-04-03T05:43:16;2.22;;;1.15;;
78410;SDS011;67706;51.074;-1.796;2023-04-03T05:45:43;3.10;;;0.60;;
78410;SDS011;67706;51.074;-1.796;2023-04-03T05:48:09;6.82;;;1.48;;
78410;SDS011;67706;51.074;-1.796;2023-04-03T05:50:39;2.38;;;0.98;;
78410;SDS011;67706;51.074;-1.796;2023-04-03T05:53:07;5.38;;;1.30;;
78410;SDS011;67706;51.074;-1.796;2023-04-03T05:55:42;1.73;;;0.90;;
78410;SDS011;67706;51.074;-1.796;2023-04-03T05:58:08;3.72;;;1.35;;
78410;SDS011;67706;51.074;-1.796;2023-04-03T06:03:02;1.13;;;0.93;;
78410;SDS011;67706;51.074;-1.796;2023-04-03T06:07:56;1.85;;;1.10;;
78410;SDS011;67706;51.074;-1.796;2023-04-03T06:10:26;4.35;;;0.88;;
78410;SDS011;67706;51.074;-1.796;2023-04-03T06:15:20;3.13;;;1.00;;
78410;SDS011;67706;51.074;-1.796;2023-04-03T06:17:47;4.50;;;1.20;;
78410;SDS011;67706;51.074;-1.796;2023-04-03T06:20:13;6.75;;;1.65;;
78410;SDS011;67706;51.074;-1.796;2023-04-03T06:22:41;4.50;;;1.63;;
78410;SDS011;67706;51.074;-1.796;2023-04-03T06:25:09;4.95;;;1.10;;
78410;SDS011;67706;51.074;-1.796;2023-04-03T06:27:37;4.15;;;0.93;;
78410;SDS011;67706;51.074;-1.796;2023-04-03T06:30:04;1.52;;;0.98;;
78410;SDS011;67706;51.074;-1.796;2023-04-03T06:32:32;6.95;;;1.88;;
78410;SDS011;67706;51.074;-1.796;2023-04-03T06:37:26;3.08;;;1.00;;
78410;SDS011;67706;51.074;-1.796;2023-04-03T06:39:54;4.63;;;0.98;;
78410;SDS011;67706;51.074;-1.796;2023-04-03T06:42:22;4.07;;;1.15;;
78410;SDS011;67706;51.074;-1.796;2023-04-03T06:44:49;3.97;;;1.25;;
78410;SDS011;67706;51.074;-1.796;2023-04-03T06:49:43;2.03;;;0.98;;
78410;SDS011;67706;51.074;-1.796;2023-04-03T06:52:10;2.85;;;0.80;;
78410;SDS011;67706;51.074;-1.796;2023-04-03T06:54:38;3.03;;;1.13;;
78410;SDS011;67706;51.074;-1.796;2023-04-03T06:57:06;7.95;;;1.67;;
78410;SDS011;67706;51.074;-1.796;2023-04-03T06:59:34;3.92;;;0.98;;
78410;SDS011;67706;51.074;-1.796;2023-04-03T07:02:01;4.97;;;1.10;;
78410;SDS011;67706;51.074;-1.796;2023-04-03T07:04:28;5.32;;;1.17;;
78410;SDS011;67706;51.074;-1.796;2023-04-03T07:06:55;5.88;;;1.00;;
78410;SDS011;67706;51.074;-1.796;2023-04-03T07:09:22;6.82;;;1.02;;
78410;SDS011;67706;51.074;-1.796;2023-04-03T07:11:51;3.65;;;1.17;;
78410;SDS011;67706;51.074;-1.796;2023-04-03T07:14:18;4.60;;;1.05;;
78410;SDS011;67706;51.074;-1.796;2023-04-03T07:16:47;4.30;;;1.27;;
78410;SDS011;67706;51.074;-1.796;2023-04-03T07:19:15;2.97;;;0.95;;
78410;SDS011;67706;51.074;-1.796;2023-04-03T07:21:49;2.95;;;1.10;;
78410;SDS011;67706;51.074;-1.796;2023-04-03T07:24:16;4.30;;;0.90;;
78410;SDS011;67706;51.074;-1.796;2023-04-03T07:26:43;5.40;;;0.90;;
78410;SDS011;67706;51.074;-1.796;2023-04-03T07:29:13;3.33;;;1.35;;
78410;SDS011;67706;51.074;-1.796;2023-04-03T07:31:40;3.85;;;1.33;;
78410;SDS011;67706;51.074;-1.796;2023-04-03T07:34:11;2.60;;;0.70;;
78410;SDS011;67706;51.074;-1.796;2023-04-03T07:36:38;2.55;;;0.90;;
78410;SDS011;67706;51.074;-1.796;2023-04-03T07:39:06;2.50;;;1.15;;
78410;SDS011;67706;51.074;-1.796;2023-04-03T07:41:34;2.83;;;0.95;;
78410;SDS011;67706;51.074;-1.796;2023-04-03T07:44:01;2.42;;;1.10;;
78410;SDS011;67706;51.074;-1.796;2023-04-03T07:46:37;2.33;;;1.10;;
78410;SDS011;67706;51.074;-1.796;2023-04-03T07:49:05;5.03;;;1.20;;
78410;SDS011;67706;51.074;-1.796;2023-04-03T07:51:34;2.28;;;1.00;;
78410;SDS011;67706;51.074;-1.796;2023-04-03T07:54:02;5.22;;;1.70;;
78410;SDS011;67706;51.074;-1.796;2023-04-03T07:56:29;5.28;;;0.90;;
78410;SDS011;67706;51.074;-1.796;2023-04-03T07:58:59;6.53;;;1.13;;
78410;SDS011;67706;51.074;-1.796;2023-04-03T08:01:29;4.22;;;1.15;;
78410;SDS011;67706;51.074;-1.796;2023-04-03T08:03:58;4.20;;;1.02;;
78410;SDS011;67706;51.074;-1.796;2023-04-03T08:06:26;2.53;;;1.40;;
78410;SDS011;67706;51.074;-1.796;2023-04-03T08:08:56;4.72;;;1.02;;
78410;SDS011;67706;51.074;-1.796;2023-04-03T08:11:24;7.63;;;1.15;;
78410;SDS011;67706;51.074;-1.796;2023-04-03T08:13:53;2.10;;;1.23;;
78410;SDS011;67706;51.074;-1.796;2023-04-03T08:16:27;6.78;;;1.52;;
78410;SDS011;67706;51.074;-1.796;2023-04-03T08:18:57;3.17;;;1.10;;
78410;SDS011;67706;51.074;-1.796;2023-04-03T08:21:38;4.95;;;1.15;;
78410;SDS011;67706;51.074;-1.796;2023-04-03T08:24:17;3.75;;;1.92;;
78410;SDS011;67706;51.074;-1.796;2023-04-03T08:29:26;2.78;;;1.02;;
78410;SDS011;67706;51.074;-1.796;2023-04-03T08:32:17;3.72;;;1.33;;
78410;SDS011;67706;51.074;-1.796;2023-04-03T08:34:47;3.63;;;1.30;;
78410;SDS011;67706;51.074;-1.796;2023-04-03T08:37:16;4.82;;;1.60;;
78410;SDS011;67706;51.074;-1.796;2023-04-03T08:39:54;5.72;;;2.15;;
78410;SDS011;67706;51.074;-1.796;2023-04-03T08:45:35;4.75;;;1.63;;
78410;SDS011;67706;51.074;-1.796;2023-04-03T08:48:13;6.82;;;1.65;;
78410;SDS011;67706;51.074;-1.796;2023-04-03T08:50:50;5.18;;;1.52;;
78410;SDS011;67706;51.074;-1.796;2023-04-03T08:53:20;6.10;;;2.55;;
78410;SDS011;67706;51.074;-1.796;2023-04-03T08:55:52;6.45;;;2.25;;
78410;SDS011;67706;51.074;-1.796;2023-04-03T08:58:21;6.22;;;2.22;;
78410;SDS011;67706;51.074;-1.796;2023-04-03T09:00:52;8.25;;;2.60;;
78410;SDS011;67706;51.074;-1.796;2023-04-03T09:03:23;7.90;;;2.63;;
78410;SDS011;67706;51.074;-1.796;2023-04-03T09:05:53;5.53;;;2.45;;
78410;SDS011;67706;51.074;-1.796;2023-04-03T09:08:27;5.35;;;2.35;;
78410;SDS011;67706;51.074;-1.796;2023-04-03T09:11:06;5.78;;;2.33;;
78410;SDS011;67706;51.074;-1.796;2023-04-03T09:13:44;6.85;;;1.95;;
78410;SDS011;67706;51.074;-1.796;2023-04-03T09:16:36;4.90;;;2.58;;
78410;SDS011;67706;51.074;-1.796;2023-04-03T09:19:13;10.55;;;2.80;;
78410;SDS011;67706;51.074;-1.796;2023-04-03T09:21:50;7.63;;;2.80;;
78410;SDS011;67706;51.074;-1.796;2023-04-03T09:24:19;4.45;;;2.65;;
78410;SDS011;67706;51.074;-1.796;2023-04-03T09:26:58;7.50;;;3.10;;
78410;SDS011;67706;51.074;-1.796;2023-04-03T09:29:33;7.13;;;2.40;;
78410;SDS011;67706;51.074;-1.796;2023-04-03T09:32:21;6.63;;;3.00;;
78410;SDS011;67706;51.074;-1.796;2023-04-03T09:34:52;6.63;;;2.88;;
78410;SDS011;67706;51.074;-1.796;2023-04-03T09:40:29;6.95;;;3.08;;
78410;SDS011;67706;51.074;-1.796;2023-04-03T09:46:15;4.60;;;2.53;;
78410;SDS011;67706;51.074;-1.796;2023-04-03T09:48:49;6.10;;;2.85;;
78410;SDS011;67706;51.074;-1.796;2023-04-03T09:51:18;7.90;;;3.47;;
78410;SDS011;67706;51.074;-1.796;2023-04-03T09:53:46;8.82;;;3.70;;
78410;SDS011;67706;51.074;-1.796;2023-04-03T09:56:19;8.65;;;3.83;;
78410;SDS011;67706;51.074;-1.796;2023-04-03T09:59:12;6.78;;;4.55;;
78410;SDS011;67706;51.074;-1.796;2023-04-03T10:01:42;10.70;;;4.53;;
78410;SDS011;67706;51.074;-1.796;2023-04-03T10:04:12;7.40;;;4.40;;
78410;SDS011;67706;51.074;-1.796;2023-04-03T10:06:40;7.18;;;3.40;;
78410;SDS011;67706;51.074;-1.796;2023-04-03T10:09:16;9.82;;;5.18;;
78410;SDS011;67706;51.074;-1.796;2023-04-03T10:14:38;7.00;;;3.90;;
78410;SDS011;67706;51.074;-1.796;2023-04-03T10:17:14;8.60;;;5.03;;
78410;SDS011;67706;51.074;-1.796;2023-04-03T10:19:54;8.50;;;5.40;;
78410;SDS011;67706;51.074;-1.796;2023-04-03T10:22:26;9.10;;;4.78;;
78410;SDS011;67706;51.074;-1.796;2023-04-03T10:27:44;9.10;;;3.78;;
78410;SDS011;67706;51.074;-1.796;2023-04-03T10:30:24;8.88;;;4.25;;
78410;SDS011;67706;51.074;-1.796;2023-04-03T10:33:05;7.72;;;4.18;;
78410;SDS011;67706;51.074;-1.796;2023-04-03T10:38:56;6.18;;;3.30;;
78410;SDS011;67706;51.074;-1.796;2023-04-03T10:41:31;5.50;;;3.72;;
78410;SDS011;67706;51.074;-1.796;2023-04-03T10:44:09;5.43;;;3.55;;
78410;SDS011;67706;51.074;-1.796;2023-04-03T10:46:45;6.38;;;3.00;;
78410;SDS011;67706;51.074;-1.796;2023-04-03T10:49:19;11.85;;;4.25;;
78410;SDS011;67706;51.074;-1.796;2023-04-03T10:51:59;5.05;;;3.30;;
78410;SDS011;67706;51.074;-1.796;2023-04-03T10:54:38;8.18;;;3.80;;
78410;SDS011;67706;51.074;-1.796;2023-04-03T10:59:47;9.43;;;4.47;;
78410;SDS011;67706;51.074;-1.796;2023-04-03T11:02:22;7.25;;;3.95;;
78410;SDS011;67706;51.074;-1.796;2023-04-03T11:04:59;10.60;;;3.78;;
78410;SDS011;67706;51.074;-1.796;2023-04-03T11:07:36;8.25;;;3.70;;
78410;SDS011;67706;51.074;-1.796;2023-04-03T11:10:10;5.07;;;3.00;;
78410;SDS011;67706;51.074;-1.796;2023-04-03T11:12:42;8.18;;;3.90;;
78410;SDS011;67706;51.074;-1.796;2023-04-03T11:15:12;6.63;;;3.95;;
78410;SDS011;67706;51.074;-1.796;2023-04-03T11:17:45;6.57;;;3.80;;
78410;SDS011;67706;51.074;-1.796;2023-04-03T11:20:17;9.85;;;4.22;;
78410;SDS011;67706;51.074;-1.796;2023-04-03T11:22:53;9.85;;;5.13;;
78410;SDS011;67706;51.074;-1.796;2023-04-03T11:25:26;10.57;;;4.47;;
78410;SDS011;67706;51.074;-1.796;2023-04-03T11:27:58;9.50;;;4.68;;
78410;SDS011;67706;51.074;-1.796;2023-04-03T11:30:28;6.32;;;3.85;;
78410;SDS011;67706;51.074;-1.796;2023-04-03T11:33:12;8.48;;;4.72;;
78410;SDS011;67706;51.074;-1.796;2023-04-03T11:35:48;7.72;;;4.20;;
78410;SDS011;67706;51.074;-1.796;2023-04-03T11:38:19;8.50;;;4.32;;
78410;SDS011;67706;51.074;-1.796;2023-04-03T11:40:51;6.45;;;4.03;;
78410;SDS011;67706;51.074;-1.796;2023-04-03T11:43:24;7.68;;;4.43;;
78410;SDS011;67706;51.074;-1.796;2023-04-03T11:45:52;6.13;;;4.13;;
78410;SDS011;67706;51.074;-1.796;2023-04-03T11:51:37;6.03;;;4.10;;
78410;SDS011;67706;51.074;-1.796;2023-04-03T12:06:48;6.65;;;4.32;;
78410;SDS011;67706;51.074;-1.796;2023-04-03T12:12:37;6.97;;;3.78;;
78410;SDS011;67706;51.074;-1.796;2023-04-03T12:15:18;9.02;;;5.07;;
78410;SDS011;67706;51.074;-1.796;2023-04-03T12:17:48;5.70;;;4.00;;
78410;SDS011;67706;51.074;-1.796;2023-04-03T12:23:31;5.38;;;3.65;;
78410;SDS011;67706;51.074;-1.796;2023-04-03T12:26:00;6.22;;;4.10;;
78410;SDS011;67706;51.074;-1.796;2023-04-03T12:28:34;10.10;;;5.00;;
78410;SDS011;67706;51.074;-1.796;2023-04-03T12:31:04;5.53;;;3.78;;
78410;SDS011;67706;51.074;-1.796;2023-04-03T12:33:33;7.05;;;4.57;;
78410;SDS011;67706;51.074;-1.796;2023-04-03T12:36:11;5.95;;;3.50;;
78410;SDS011;67706;51.074;-1.796;2023-04-03T12:41:55;8.10;;;4.13;;
78410;SDS011;67706;51.074;-1.796;2023-04-03T12:44:35;5.13;;;3.75;;
78410;SDS011;67706;51.074;-1.796;2023-04-03T12:47:16;6.78;;;3.30;;
78410;SDS011;67706;51.074;-1.796;2023-04-03T12:49:49;5.57;;;3.92;;
78410;SDS011;67706;51.074;-1.796;2023-04-03T12:52:29;4.95;;;3.90;;
78410;SDS011;67706;51.074;-1.796;2023-04-03T12:55:00;8.48;;;3.85;;
78410;SDS011;67706;51.074;-1.796;2023-04-03T12:57:30;6.78;;;3.90;;
78410;SDS011;67706;51.074;-1.796;2023-04-03T12:59:57;7.38;;;4.72;;
78410;SDS011;67706;51.074;-1.796;2023-04-03T13:02:25;5.93;;;4.18;;
78410;SDS011;67706;51.074;-1.796;2023-04-03T13:04:55;7.97;;;4.07;;
78410;SDS011;67706;51.074;-1.796;2023-04-03T13:07:25;8.18;;;4.97;;
78410;SDS011;67706;51.074;-1.796;2023-04-03T13:10:09;8.27;;;4.47;;
78410;SDS011;67706;51.074;-1.796;2023-04-03T13:12:50;7.18;;;3.92;;
78410;SDS011;67706;51.074;-1.796;2023-04-03T13:15:18;10.20;;;4.20;;
78410;SDS011;67706;51.074;-1.796;2023-04-03T13:17:48;6.18;;;3.97;;
78410;SDS011;67706;51.074;-1.796;2023-04-03T13:20:19;6.95;;;4.70;;
78410;SDS011;67706;51.074;-1.796;2023-04-03T13:22:49;8.80;;;4.30;;
78410;SDS011;67706;51.074;-1.796;2023-04-03T13:25:23;9.82;;;4.38;;
78410;SDS011;67706;51.074;-1.796;2023-04-03T13:27:53;7.18;;;4.63;;
78410;SDS011;67706;51.074;-1.796;2023-04-03T13:30:23;12.00;;;5.53;;
78410;SDS011;67706;51.074;-1.796;2023-04-03T13:32:53;8.00;;;4.30;;
78410;SDS011;67706;51.074;-1.796;2023-04-03T13:35:26;8.02;;;4.18;;
78410;SDS011;67706;51.074;-1.796;2023-04-03T13:37:59;9.30;;;5.15;;
78410;SDS011;67706;51.074;-1.796;2023-04-03T13:40:27;8.98;;;4.60;;
78410;SDS011;67706;51.074;-1.796;2023-04-03T13:43:02;8.10;;;4.75;;
78410;SDS011;67706;51.074;-1.796;2023-04-03T13:45:31;6.63;;;3.42;;
78410;SDS011;67706;51.074;-1.796;2023-04-03T13:48:16;9.15;;;4.57;;
78410;SDS011;67706;51.074;-1.796;2023-04-03T13:53:25;8.40;;;4.57;;
78410;SDS011;67706;51.074;-1.796;2023-04-03T13:55:58;10.70;;;4.95;;
78410;SDS011;67706;51.074;-1.796;2023-04-03T13:58:32;6.55;;;4.30;;
78410;SDS011;67706;51.074;-1.796;2023-04-03T14:01:01;5.20;;;3.17;;
78410;SDS011;67706;51.074;-1.796;2023-04-03T14:03:39;7.13;;;4.68;;
78410;SDS011;67706;51.074;-1.796;2023-04-03T14:06:10;6.45;;;3.95;;
78410;SDS011;67706;51.074;-1.796;2023-04-03T14:08:38;7.35;;;4.03;;
78410;SDS011;67706;51.074;-1.796;2023-04-03T14:11:08;11.13;;;4.95;;
78410;SDS011;67706;51.074;-1.796;2023-04-03T14:13:41;9.27;;;3.63;;
78410;SDS011;67706;51.074;-1.796;2023-04-03T14:16:12;5.70;;;4.20;;
78410;SDS011;67706;51.074;-1.796;2023-04-03T14:18:40;8.82;;;4.03;;
78410;SDS011;67706;51.074;-1.796;2023-04-03T14:21:06;7.07;;;4.13;;
78410;SDS011;67706;51.074;-1.796;2023-04-03T14:23:33;7.53;;;4.03;;
78410;SDS011;67706;51.074;-1.796;2023-04-03T14:26:00;7.80;;;4.40;;
78410;SDS011;67706;51.074;-1.796;2023-04-03T14:28:27;8.80;;;3.80;;
78410;SDS011;67706;51.074;-1.796;2023-04-03T14:30:55;9.00;;;4.32;;
78410;SDS011;67706;51.074;-1.796;2023-04-03T14:33:22;6.20;;;4.03;;
78410;SDS011;67706;51.074;-1.796;2023-04-03T14:35:51;7.95;;;4.30;;
78410;SDS011;67706;51.074;-1.796;2023-04-03T14:38:22;6.38;;;4.65;;
78410;SDS011;67706;51.074;-1.796;2023-04-03T14:40:51;7.20;;;4.47;;
78410;SDS011;67706;51.074;-1.796;2023-04-03T14:43:18;4.85;;;3.35;;
78410;SDS011;67706;51.074;-1.796;2023-04-03T14:45:45;6.57;;;3.50;;
78410;SDS011;67706;51.074;-1.796;2023-04-03T14:48:15;5.18;;;3.95;;
78410;SDS011;67706;51.074;-1.796;2023-04-03T14:50:44;6.32;;;3.40;;
78410;SDS011;67706;51.074;-1.796;2023-04-03T14:53:12;8.85;;;3.72;;
78410;SDS011;67706;51.074;-1.796;2023-04-03T14:55:39;8.20;;;3.42;;
78410;SDS011;67706;51.074;-1.796;2023-04-03T14:58:08;6.57;;;3.67;;
78410;SDS011;67706;51.074;-1.796;2023-04-03T15:00:38;5.57;;;3.70;;
78410;SDS011;67706;51.074;-1.796;2023-04-03T15:03:04;5.95;;;3.95;;
78410;SDS011;67706;51.074;-1.796;2023-04-03T15:05:32;4.43;;;3.05;;
78410;SDS011;67706;51.074;-1.796;2023-04-03T15:08:02;6.53;;;4.05;;
78410;SDS011;67706;51.074;-1.796;2023-04-03T15:10:30;8.73;;;4.28;;
78410;SDS011;67706;51.074;-1.796;2023-04-03T15:12:58;5.30;;;3.33;;
78410;SDS011;67706;51.074;-1.796;2023-04-03T15:15:27;6.00;;;3.30;;
78410;SDS011;67706;51.074;-1.796;2023-04-03T15:17:56;3.92;;;2.58;;
78410;SDS011;67706;51.074;-1.796;2023-04-03T15:20:24;5.43;;;2.88;;
78410;SDS011;67706;51.074;-1.796;2023-04-03T15:22:54;4.85;;;2.95;;
78410;SDS011;67706;51.074;-1.796;2023-04-03T15:25:22;8.82;;;3.63;;
78410;SDS011;67706;51.074;-1.796;2023-04-03T15:27:49;6.10;;;3.25;;
78410;SDS011;67706;51.074;-1.796;2023-04-03T15:30:17;5.20;;;3.08;;
78410;SDS011;67706;51.074;-1.796;2023-04-03T15:32:44;5.93;;;3.88;;
78410;SDS011;67706;51.074;-1.796;2023-04-03T15:35:12;4.20;;;3.42;;
78410;SDS011;67706;51.074;-1.796;2023-04-03T15:37:38;6.28;;;3.95;;
78410;SDS011;67706;51.074;-1.796;2023-04-03T15:40:07;5.95;;;3.85;;
78410;SDS011;67706;51.074;-1.796;2023-04-03T15:42:35;7.57;;;4.20;;
78410;SDS011;67706;51.074;-1.796;2023-04-03T15:45:01;7.18;;;3.97;;
78410;SDS011;67706;51.074;-1.796;2023-04-03T15:47:28;8.00;;;3.60;;
78410;SDS011;67706;51.074;-1.796;2023-04-03T15:49:55;6.20;;;3.40;;
78410;SDS011;67706;51.074;-1.796;2023-04-03T15:52:22;8.00;;;3.60;;
78410;SDS011;67706;51.074;-1.796;2023-04-03T15:54:49;7.55;;;3.60;;
78410;SDS011;67706;51.074;-1.796;2023-04-03T15:57:17;5.05;;;2.95;;
78410;SDS011;67706;51.074;-1.796;2023-04-03T15:59:44;5.40;;;3.33;;
78410;SDS011;67706;51.074;-1.796;2023-04-03T16:02:10;5.38;;;3.10;;
78410;SDS011;67706;51.074;-1.796;2023-04-03T16:04:39;6.38;;;3.60;;
78410;SDS011;67706;51.074;-1.796;2023-04-03T16:07:06;5.78;;;3.40;;
78410;SDS011;67706;51.074;-1.796;2023-04-03T16:09:33;7.13;;;3.15;;
78410;SDS011;67706;51.074;-1.796;2023-04-03T16:12:02;5.53;;;2.92;;
78410;SDS011;67706;51.074;-1.796;2023-04-03T16:14:30;7.13;;;2.50;;
78410;SDS011;67706;51.074;-1.796;2023-04-03T16:16:57;6.95;;;2.88;;
78410;SDS011;67706;51.074;-1.796;2023-04-03T16:19:25;3.55;;;2.55;;
78410;SDS011;67706;51.074;-1.796;2023-04-03T16:21:52;3.58;;;2.70;;
78410;SDS011;67706;51.074;-1.796;2023-04-03T16:24:20;5.25;;;2.72;;
78410;SDS011;67706;51.074;-1.796;2023-04-03T16:26:47;4.22;;;2.90;;
78410;SDS011;67706;51.074;-1.796;2023-04-03T16:29:13;4.40;;;2.63;;
78410;SDS011;67706;51.074;-1.796;2023-04-03T16:31:41;5.18;;;2.92;;
78410;SDS011;67706;51.074;-1.796;2023-04-03T16:34:08;3.92;;;2.55;;
78410;SDS011;67706;51.074;-1.796;2023-04-03T16:36:35;5.88;;;2.60;;
78410;SDS011;67706;51.074;-1.796;2023-04-03T16:39:03;5.30;;;2.80;;
78410;SDS011;67706;51.074;-1.796;2023-04-03T16:41:30;5.60;;;2.78;;
78410;SDS011;67706;51.074;-1.796;2023-04-03T16:43:57;3.08;;;2.50;;
78410;SDS011;67706;51.074;-1.796;2023-04-03T16:46:23;5.97;;;2.88;;
78410;SDS011;67706;51.074;-1.796;2023-04-03T16:48:51;2.85;;;2.50;;
78410;SDS011;67706;51.074;-1.796;2023-04-03T16:51:18;5.78;;;2.90;;
78410;SDS011;67706;51.074;-1.796;2023-04-03T16:53:45;6.82;;;2.90;;
78410;SDS011;67706;51.074;-1.796;2023-04-03T16:56:12;3.78;;;2.88;;
78410;SDS011;67706;51.074;-1.796;2023-04-03T16:58:38;5.07;;;2.97;;
78410;SDS011;67706;51.074;-1.796;2023-04-03T17:01:09;5.43;;;2.85;;